Terminal Aerodrome Forecast
Issued by NWS

Home | Current Version | Previous Version | Text Only | Print | Product List | Glossary On
Versions: 1 2 3 4 5 6 7 8 9 10 11 12 13 14 15 16 17 18 19 20 21 22
000
FTUS43 KMPX 220400 AAA
TAFAXN
TAF AMD
KAXN 220431Z 2205/2224 05004KT 6SM BR OVC007
     FM220700 36003KT 5SM BR BKN003
     FM220900 00000KT 3SM BR OVC002
     FM221400 34005KT P6SM OVC008
     FM221700 04005KT P6SM SCT015=

USA.gov is the U.S. government's official web portal to all federal, state and local government web resources and services.